Clackamas, Oregon
Current Conditions -  °F | °C
As of 1:53 AM on Monday 26 Jan 2015 (Local Time) from KTTD Reporting Station
Clear Clear  
Wind Chill:   Ceiling: Unl
Heat Index:   Visibility: 10mi
Dew Point:   Wind: 16mph
Humidity: 83%   Direction: 110°ESE
Pressure: 29.96"   Gusts: 22mph
Location:  45.41°N, 122.55°W
Report Text: KTTD 260953Z AUTO 11014G19KT 10SM CLR 08/06 A2996 RMK AO2 PRESFR SLP145 T00830056
Loading
Personal Weather Stations






























Interactive Weather Map New forecast layout! Learn more

10-Day Weather Forecast

Advertisements
Track Severe Weather on mobile